createdAt,value
2022-10-19T00:00:03.176Z,10.40
2022-10-19T00:01:03.274Z,10.40
2022-10-19T00:02:02.946Z,9.40
2022-10-19T00:03:02.446Z,9.40
2022-10-19T00:04:04.869Z,9.40
2022-10-19T00:05:02.724Z,9.40
2022-10-19T00:06:02.581Z,9.40
2022-10-19T00:07:02.496Z,9.70
2022-10-19T00:08:03.104Z,9.70
2022-10-19T00:09:02.759Z,9.70
2022-10-19T00:10:02.644Z,9.70
2022-10-19T00:11:02.536Z,9.70
2022-10-19T00:12:02.093Z,8.30
2022-10-19T00:13:02.682Z,8.30
2022-10-19T00:14:02.192Z,8.30
2022-10-19T00:15:02.670Z,8.30
2022-10-19T00:16:02.230Z,8.30
2022-10-19T00:17:02.715Z,8.50
2022-10-19T00:18:03.364Z,8.50
2022-10-19T00:19:03.186Z,8.50
2022-10-19T00:20:03.015Z,8.50
2022-10-19T00:21:02.925Z,8.50
2022-10-19T00:22:02.833Z,8.70
2022-10-19T00:23:03.306Z,8.70
2022-10-19T00:24:03.149Z,8.70
2022-10-19T00:25:02.852Z,8.70
2022-10-19T00:26:03.512Z,8.70
2022-10-19T00:27:02.234Z,8.70
2022-10-19T00:28:02.088Z,8.70
2022-10-19T00:29:02.719Z,8.70
2022-10-19T00:30:02.378Z,8.70
2022-10-19T00:31:02.188Z,8.70
2022-10-19T00:32:02.772Z,9.10
2022-10-19T00:33:03.051Z,9.10
2022-10-19T00:34:02.859Z,9.10
2022-10-19T00:35:03.048Z,9.10
2022-10-19T00:36:02.931Z,9.10
2022-10-19T00:37:02.664Z,10.70
2022-10-19T00:38:02.888Z,10.70
2022-10-19T00:39:02.697Z,10.70
2022-10-19T00:40:03.235Z,10.70
2022-10-19T00:41:03.191Z,10.70
2022-10-19T00:42:03.035Z,10.60
2022-10-19T00:43:03.566Z,10.60
2022-10-19T00:44:03.541Z,10.60
2022-10-19T00:45:03.148Z,10.60
2022-10-19T00:46:02.989Z,10.60
2022-10-19T00:47:02.565Z,10.40
2022-10-19T00:48:03.048Z,10.40
2022-10-19T00:49:04.002Z,10.40
2022-10-19T00:50:02.520Z,10.40
2022-10-19T00:51:03.034Z,10.40
2022-10-19T00:52:02.699Z,10.50
2022-10-19T00:53:02.795Z,10.50
2022-10-19T00:54:02.997Z,10.50
2022-10-19T00:55:02.864Z,10.50
2022-10-19T00:56:02.791Z,10.50
2022-10-19T00:57:02.464Z,10.40
2022-10-19T00:58:02.867Z,10.40
2022-10-19T00:59:02.520Z,10.40
2022-10-19T01:00:02.428Z,10.40
2022-10-19T01:01:02.455Z,10.40
2022-10-19T01:02:03.104Z,10.40
2022-10-19T01:03:02.966Z,10.40
2022-10-19T01:04:02.927Z,10.40
2022-10-19T01:05:03.473Z,10.40
2022-10-19T01:06:03.081Z,10.40
2022-10-19T01:07:02.445Z,9.20
2022-10-19T01:08:02.951Z,9.20
2022-10-19T01:09:02.528Z,9.20
2022-10-19T01:10:03.066Z,9.20
2022-10-19T01:11:02.629Z,9.20
2022-10-19T01:12:03.123Z,10.20
2022-10-19T01:13:03.044Z,10.20
2022-10-19T01:14:02.905Z,10.20
2022-10-19T01:15:03.522Z,10.20
2022-10-19T01:16:03.132Z,10.20
2022-10-19T01:17:03.001Z,8.50
2022-10-19T01:18:02.561Z,8.50
2022-10-19T01:19:02.361Z,8.50
2022-10-19T01:20:02.851Z,8.50
2022-10-19T01:21:02.868Z,8.50
2022-10-19T01:22:02.505Z,9.90
2022-10-19T01:23:02.446Z,9.90
2022-10-19T01:24:02.396Z,9.90
2022-10-19T01:25:02.741Z,9.90
2022-10-19T01:26:02.491Z,9.90
2022-10-19T01:27:02.935Z,8.80
2022-10-19T01:28:02.884Z,8.80
2022-10-19T01:29:02.772Z,8.80
2022-10-19T01:30:03.492Z,8.80
2022-10-19T01:31:03.068Z,8.80
2022-10-19T01:32:02.702Z,8.30
2022-10-19T01:33:02.445Z,8.30
2022-10-19T01:34:02.907Z,8.30
2022-10-19T01:35:02.427Z,8.30
2022-10-19T01:36:02.867Z,8.30
2022-10-19T01:37:02.533Z,9.40
2022-10-19T01:38:02.306Z,9.40
2022-10-19T01:39:02.721Z,9.40
2022-10-19T01:40:02.452Z,9.40
2022-10-19T01:41:02.769Z,9.40
2022-10-19T01:42:03.517Z,8.90
2022-10-19T01:43:03.031Z,8.90
2022-10-19T01:44:03.545Z,8.90
2022-10-19T01:45:03.508Z,8.90
2022-10-19T01:46:03.538Z,8.90
2022-10-19T01:47:02.497Z,8.10
2022-10-19T01:48:02.542Z,8.10
2022-10-19T01:49:02.971Z,8.10
2022-10-19T01:50:02.815Z,8.10
2022-10-19T01:51:02.693Z,8.10
2022-10-19T01:52:03.192Z,10.90
2022-10-19T01:53:03.157Z,10.90
2022-10-19T01:54:03.125Z,10.90
2022-10-19T01:55:02.924Z,10.90
2022-10-19T01:56:03.028Z,10.90
2022-10-19T01:57:03.564Z,10.30
2022-10-19T01:58:06.241Z,10.30
2022-10-19T01:59:03.486Z,10.30
2022-10-19T02:00:03.349Z,10.30
2022-10-19T02:01:03.565Z,10.30
2022-10-19T02:02:02.921Z,10.20
2022-10-19T02:03:03.068Z,10.20
2022-10-19T02:04:02.904Z,10.20
2022-10-19T02:05:02.814Z,10.20
2022-10-19T02:06:02.637Z,10.20
2022-10-19T02:07:03.526Z,10.40
2022-10-19T02:08:02.935Z,10.40
2022-10-19T02:09:02.857Z,10.40
2022-10-19T02:10:02.884Z,10.40
2022-10-19T02:11:03.375Z,10.40
2022-10-19T02:12:02.629Z,10.00
2022-10-19T02:13:02.525Z,10.00
2022-10-19T02:14:02.524Z,10.00
2022-10-19T02:15:02.450Z,10.00
2022-10-19T02:16:02.367Z,10.00
2022-10-19T02:17:02.798Z,10.40
2022-10-19T02:18:02.646Z,10.40
2022-10-19T02:19:02.575Z,10.40
2022-10-19T02:20:02.342Z,10.40
2022-10-19T02:21:02.775Z,10.40
2022-10-19T02:22:02.969Z,10.00
2022-10-19T02:23:03.377Z,10.00
2022-10-19T02:24:02.877Z,10.00
2022-10-19T02:25:02.769Z,10.00
2022-10-19T02:26:03.526Z,10.00
2022-10-19T02:27:02.934Z,10.30
2022-10-19T02:28:02.549Z,10.30
2022-10-19T02:29:02.372Z,10.30
2022-10-19T02:30:02.889Z,10.30
2022-10-19T02:31:02.257Z,10.30
2022-10-19T02:32:03.499Z,10.70
2022-10-19T02:33:03.085Z,10.70
2022-10-19T02:34:02.916Z,10.70
2022-10-19T02:35:03.456Z,10.70
2022-10-19T02:36:03.202Z,10.70
2022-10-19T02:37:02.387Z,11.10
2022-10-19T02:38:02.760Z,11.10
2022-10-19T02:39:02.161Z,11.10
2022-10-19T02:40:02.769Z,11.10
2022-10-19T02:41:02.296Z,11.10
2022-10-19T02:42:02.812Z,11.20
2022-10-19T02:43:02.697Z,11.20
2022-10-19T02:44:02.663Z,11.20
2022-10-19T02:45:02.490Z,11.20
2022-10-19T02:46:02.474Z,11.20
2022-10-19T02:47:03.545Z,11.40
2022-10-19T02:48:03.531Z,11.40
2022-10-19T02:49:03.051Z,11.40
2022-10-19T02:50:03.140Z,11.40
2022-10-19T02:51:03.370Z,11.40
2022-10-19T02:52:03.043Z,11.40
2022-10-19T02:53:03.616Z,11.40
2022-10-19T02:54:05.195Z,11.40
2022-10-19T02:55:03.519Z,11.40
2022-10-19T02:56:03.121Z,11.40
2022-10-19T02:57:02.684Z,9.90
2022-10-19T02:58:03.213Z,9.90
2022-10-19T02:59:03.034Z,9.90
2022-10-19T03:00:02.832Z,9.90
2022-10-19T03:01:03.047Z,9.90
2022-10-19T03:02:01.921Z,6.80
2022-10-19T03:03:02.504Z,6.80
2022-10-19T03:04:02.031Z,6.80
2022-10-19T03:05:02.533Z,6.80
2022-10-19T03:06:02.075Z,6.80
2022-10-19T03:07:02.560Z,6.90
2022-10-19T03:08:03.121Z,6.90
2022-10-19T03:09:02.956Z,6.90
2022-10-19T03:10:02.858Z,6.90
2022-10-19T03:11:02.576Z,6.90
2022-10-19T03:12:02.007Z,7.50
2022-10-19T03:13:02.324Z,7.50
2022-10-19T03:14:02.579Z,7.50
2022-10-19T03:15:02.111Z,7.50
2022-10-19T03:16:02.608Z,7.50
2022-10-19T03:17:02.169Z,8.20
2022-10-19T03:18:02.014Z,8.20
2022-10-19T03:19:02.648Z,8.20
2022-10-19T03:20:02.619Z,8.20
2022-10-19T03:21:02.264Z,8.20
2022-10-19T03:22:02.853Z,10.70
2022-10-19T03:23:02.792Z,10.70
2022-10-19T03:24:03.359Z,10.70
2022-10-19T03:25:02.951Z,10.70
2022-10-19T03:26:02.726Z,10.70
2022-10-19T03:27:02.607Z,9.10
2022-10-19T03:28:02.468Z,9.10
2022-10-19T03:29:02.636Z,9.10
2022-10-19T03:30:02.527Z,9.10
2022-10-19T03:31:03.008Z,9.10
2022-10-19T03:32:02.830Z,10.00
2022-10-19T03:33:02.742Z,10.00
2022-10-19T03:34:02.584Z,10.00
2022-10-19T03:35:02.926Z,10.00
2022-10-19T03:36:02.801Z,10.00
2022-10-19T03:37:02.314Z,13.70
2022-10-19T03:38:02.286Z,13.70
2022-10-19T03:39:02.147Z,13.70
2022-10-19T03:40:02.690Z,13.70
2022-10-19T03:41:02.294Z,13.70
2022-10-19T03:42:02.146Z,14.30
2022-10-19T03:43:02.674Z,14.30
2022-10-19T03:44:02.626Z,14.30
2022-10-19T03:45:02.404Z,14.30
2022-10-19T03:46:02.247Z,14.30
2022-10-19T03:47:02.813Z,13.80
2022-10-19T03:48:02.587Z,13.80
2022-10-19T03:49:03.156Z,13.80
2022-10-19T03:50:03.136Z,13.80
2022-10-19T03:51:02.806Z,13.80
2022-10-19T03:52:02.319Z,13.20
2022-10-19T03:54:02.746Z,13.20
2022-10-19T03:55:02.574Z,13.20
2022-10-19T03:56:02.457Z,13.20
2022-10-19T03:57:02.790Z,12.30
2022-10-19T03:58:02.821Z,12.30
2022-10-19T03:59:02.936Z,12.30
2022-10-19T04:00:02.897Z,12.30
2022-10-19T04:01:03.025Z,12.30
2022-10-19T04:02:02.857Z,12.10
2022-10-19T04:03:02.655Z,12.10
2022-10-19T04:04:02.911Z,12.10
2022-10-19T04:05:02.590Z,12.10
2022-10-19T04:06:02.506Z,12.10
2022-10-19T04:07:02.195Z,12.30
2022-10-19T04:08:02.078Z,12.30
2022-10-19T04:09:02.034Z,12.30
2022-10-19T04:10:01.956Z,12.30
2022-10-19T04:11:01.742Z,12.30
2022-10-19T04:12:02.307Z,13.00
2022-10-19T04:13:02.186Z,13.00
2022-10-19T04:14:02.120Z,13.00
2022-10-19T04:15:02.267Z,13.00
2022-10-19T04:16:02.260Z,13.00
2022-10-19T04:17:02.887Z,13.00
2022-10-19T04:18:02.728Z,13.00
2022-10-19T04:19:02.559Z,13.00
2022-10-19T04:20:02.430Z,13.00
2022-10-19T04:21:02.471Z,13.00
2022-10-19T04:22:01.966Z,8.30
2022-10-19T04:23:01.773Z,8.30
2022-10-19T04:24:01.766Z,8.30
2022-10-19T04:25:01.624Z,8.30
2022-10-19T04:26:02.161Z,8.30
2022-10-19T04:27:02.831Z,8.20
2022-10-19T04:28:02.662Z,8.20
2022-10-19T04:29:02.567Z,8.20
2022-10-19T04:30:02.472Z,8.20
2022-10-19T04:31:02.416Z,8.20
2022-10-19T04:32:02.932Z,8.20
2022-10-19T04:33:02.761Z,8.20
2022-10-19T04:34:02.622Z,8.20
2022-10-19T04:35:02.528Z,8.20
2022-10-19T04:36:02.957Z,8.20
2022-10-19T04:37:02.679Z,8.50
2022-10-19T04:38:02.282Z,8.50
2022-10-19T04:39:02.591Z,8.50
2022-10-19T04:40:02.215Z,8.50
2022-10-19T04:41:02.049Z,8.50
2022-10-19T04:42:02.097Z,8.30
2022-10-19T04:43:02.664Z,8.30
2022-10-19T04:44:02.584Z,8.30
2022-10-19T04:45:02.483Z,8.30
2022-10-19T04:46:02.314Z,8.30
2022-10-19T04:47:02.941Z,8.20
2022-10-19T04:48:02.730Z,8.20
2022-10-19T04:49:02.741Z,8.20
2022-10-19T04:50:02.578Z,8.20
2022-10-19T04:51:02.381Z,8.20
2022-10-19T04:52:02.996Z,8.10
2022-10-19T04:53:02.810Z,8.10
2022-10-19T04:54:02.632Z,8.10
2022-10-19T04:55:02.444Z,8.10
2022-10-19T04:56:02.859Z,8.10
2022-10-19T04:57:02.494Z,9.00
2022-10-19T04:58:02.182Z,9.00
2022-10-19T04:59:02.043Z,9.00
2022-10-19T05:00:01.966Z,9.00
2022-10-19T05:01:02.025Z,9.00
2022-10-19T05:02:02.887Z,9.20
2022-10-19T05:03:02.610Z,9.20
2022-10-19T05:04:02.575Z,9.20
2022-10-19T05:05:02.467Z,9.20
2022-10-19T05:06:02.549Z,9.20
2022-10-19T05:07:03.088Z,9.90
2022-10-19T05:08:02.682Z,9.90
2022-10-19T05:09:02.497Z,9.90
2022-10-19T05:10:02.997Z,9.90
2022-10-19T05:11:02.770Z,9.90
2022-10-19T05:12:02.755Z,8.60
2022-10-19T05:13:03.229Z,8.60
2022-10-19T05:14:02.848Z,8.60
2022-10-19T05:15:02.786Z,8.60
2022-10-19T05:16:03.204Z,8.60
2022-10-19T05:17:03.744Z,8.50
2022-10-19T05:18:03.503Z,8.50
2022-10-19T05:19:03.410Z,8.50
2022-10-19T05:20:03.227Z,8.50
2022-10-19T05:21:03.820Z,8.50
2022-10-19T05:22:03.147Z,9.00
2022-10-19T05:23:06.304Z,9.00
2022-10-19T05:24:02.619Z,9.00
2022-10-19T05:25:03.161Z,9.00
2022-10-19T05:26:02.695Z,9.00
2022-10-19T05:27:03.004Z,11.40
2022-10-19T05:28:03.522Z,11.40
2022-10-19T05:29:03.243Z,11.40
2022-10-19T05:30:03.188Z,11.40
2022-10-19T05:31:03.086Z,11.40
2022-10-19T05:32:03.032Z,9.40
2022-10-19T05:33:03.518Z,9.40
2022-10-19T05:34:03.395Z,9.40
2022-10-19T05:35:03.499Z,9.40
2022-10-19T05:36:03.501Z,9.40
2022-10-19T05:37:02.939Z,8.50
2022-10-19T05:38:03.076Z,8.50
2022-10-19T05:39:02.742Z,8.50
2022-10-19T05:40:02.649Z,8.50
2022-10-19T05:41:02.485Z,8.50
2022-10-19T05:42:03.025Z,8.80
2022-10-19T05:43:03.597Z,8.80
2022-10-19T05:44:03.220Z,8.80
2022-10-19T05:45:03.202Z,8.80
2022-10-19T05:46:03.175Z,8.80
2022-10-19T05:47:03.521Z,8.70
2022-10-19T05:48:03.550Z,8.70
2022-10-19T05:49:03.340Z,8.70
2022-10-19T05:50:03.194Z,8.70
2022-10-19T05:51:03.072Z,8.70
2022-10-19T05:52:02.655Z,8.70
2022-10-19T05:53:02.838Z,8.70
2022-10-19T05:54:02.437Z,8.70
2022-10-19T05:55:02.280Z,8.70
2022-10-19T05:56:02.755Z,8.70
2022-10-19T05:57:02.667Z,9.10
2022-10-19T05:58:02.637Z,9.10
2022-10-19T05:59:03.220Z,9.10
2022-10-19T06:00:02.935Z,9.10
2022-10-19T06:01:02.903Z,9.10
2022-10-19T06:02:01.851Z,9.20
2022-10-19T06:03:01.675Z,9.20
2022-10-19T06:04:02.117Z,9.20
2022-10-19T06:05:01.962Z,9.20
2022-10-19T06:06:01.761Z,9.20
2022-10-19T06:07:02.429Z,9.20
2022-10-19T06:08:02.440Z,9.20
2022-10-19T06:09:02.443Z,9.20
2022-10-19T06:10:02.436Z,9.20
2022-10-19T06:11:02.374Z,9.20
2022-10-19T06:12:02.087Z,9.40
2022-10-19T06:13:02.338Z,9.40
2022-10-19T06:14:02.286Z,9.40
2022-10-19T06:15:02.149Z,9.40
2022-10-19T06:16:02.096Z,9.40
2022-10-19T06:17:02.084Z,9.40
2022-10-19T06:18:01.950Z,9.40
2022-10-19T06:19:01.902Z,9.40
2022-10-19T06:20:02.100Z,9.40
2022-10-19T06:21:02.017Z,9.40
2022-10-19T06:22:02.617Z,8.80
2022-10-19T06:23:02.628Z,8.80
2022-10-19T06:24:02.683Z,8.80
2022-10-19T06:25:02.724Z,8.80
2022-10-19T06:26:02.633Z,8.80
2022-10-19T06:27:01.965Z,8.20
2022-10-19T06:28:01.970Z,8.20
2022-10-19T06:29:01.894Z,8.20
2022-10-19T06:30:01.902Z,8.20
2022-10-19T06:31:02.087Z,8.20
2022-10-19T06:32:02.468Z,7.80
2022-10-19T06:34:02.614Z,7.80
2022-10-19T06:35:02.518Z,7.80
2022-10-19T06:36:02.446Z,7.80
2022-10-19T06:37:02.105Z,8.80
2022-10-19T06:38:02.046Z,8.80
2022-10-19T06:39:02.315Z,8.80
2022-10-19T06:40:06.729Z,8.80
2022-10-19T06:41:02.227Z,8.80
2022-10-19T06:42:02.140Z,7.90
2022-10-19T06:43:02.096Z,7.90
2022-10-19T06:44:02.061Z,7.90
2022-10-19T06:45:01.980Z,7.90
2022-10-19T06:46:01.885Z,7.90
2022-10-19T06:47:02.302Z,7.70
2022-10-19T06:48:05.056Z,7.70
2022-10-19T06:49:02.262Z,7.70
2022-10-19T06:50:02.074Z,7.70
2022-10-19T06:51:02.594Z,7.70
2022-10-19T06:52:02.359Z,6.90
2022-10-19T06:53:02.469Z,6.90
2022-10-19T06:54:02.258Z,6.90
2022-10-19T06:55:02.008Z,6.90
2022-10-19T06:56:02.653Z,6.90
2022-10-19T06:57:02.450Z,7.30
2022-10-19T06:58:02.554Z,7.30
2022-10-19T06:59:02.613Z,7.30
2022-10-19T07:00:02.514Z,7.30
2022-10-19T07:01:02.588Z,7.30
2022-10-19T07:02:03.146Z,7.50
2022-10-19T07:03:03.774Z,7.50
2022-10-19T07:04:03.528Z,7.50
2022-10-19T07:05:06.101Z,7.50
2022-10-19T07:06:03.539Z,7.50
2022-10-19T07:07:02.660Z,10.10
2022-10-19T07:08:03.170Z,10.10
2022-10-19T07:09:02.964Z,10.10
2022-10-19T07:10:03.031Z,10.10
2022-10-19T07:11:03.072Z,10.10
2022-10-19T07:12:02.845Z,9.80
2022-10-19T07:13:02.697Z,9.80
2022-10-19T07:14:03.230Z,9.80
2022-10-19T07:15:03.191Z,9.80
2022-10-19T07:16:02.902Z,9.80
2022-10-19T07:17:02.317Z,9.70
2022-10-19T07:18:02.325Z,9.70
2022-10-19T07:19:02.402Z,9.70
2022-10-19T07:20:02.687Z,9.70
2022-10-19T07:21:02.729Z,9.70
2022-10-19T07:22:02.752Z,9.30
2022-10-19T07:23:02.687Z,9.30
2022-10-19T07:24:02.730Z,9.30
2022-10-19T07:25:02.876Z,9.30
2022-10-19T07:26:02.863Z,9.30
2022-10-19T07:27:03.128Z,9.40
2022-10-19T07:28:02.946Z,9.40
2022-10-19T07:29:02.928Z,9.40
2022-10-19T07:30:02.803Z,9.40
2022-10-19T07:31:02.741Z,9.40
2022-10-19T07:32:03.536Z,9.60
2022-10-19T07:33:03.529Z,9.60
2022-10-19T07:34:03.290Z,9.60
2022-10-19T07:35:03.353Z,9.60
2022-10-19T07:36:03.499Z,9.60
2022-10-19T07:37:03.510Z,9.50
2022-10-19T07:38:03.187Z,9.50
2022-10-19T07:39:03.751Z,9.50
2022-10-19T07:40:03.166Z,9.50
2022-10-19T07:41:03.175Z,9.50
2022-10-19T07:42:02.873Z,9.50
2022-10-19T07:43:02.873Z,9.50
2022-10-19T07:44:02.821Z,9.50
2022-10-19T07:45:02.751Z,9.50
2022-10-19T07:46:02.772Z,9.50
2022-10-19T07:47:03.565Z,9.00
2022-10-19T07:48:03.561Z,9.00
2022-10-19T07:49:03.496Z,9.00
2022-10-19T07:50:03.511Z,9.00
2022-10-19T07:51:03.578Z,9.00
2022-10-19T07:52:03.210Z,9.90
2022-10-19T07:53:02.823Z,9.90
2022-10-19T07:54:02.792Z,9.90
2022-10-19T07:55:03.206Z,9.90
2022-10-19T07:56:02.732Z,9.90
2022-10-19T07:57:03.536Z,9.50
2022-10-19T07:58:03.528Z,9.50
2022-10-19T07:59:03.168Z,9.50
2022-10-19T08:00:03.005Z,9.50
2022-10-19T08:01:03.074Z,9.50
2022-10-19T08:02:02.540Z,9.80
2022-10-19T08:03:31.565Z,9.80
2022-10-19T08:05:06.193Z,9.80
2022-10-19T08:06:02.212Z,9.80
2022-10-19T08:07:02.911Z,8.90
2022-10-19T08:08:02.832Z,8.90
2022-10-19T08:09:02.880Z,8.90
2022-10-19T08:10:02.718Z,8.90
2022-10-19T08:11:02.991Z,8.90
2022-10-19T08:12:02.455Z,9.10
2022-10-19T08:13:02.214Z,9.10
2022-10-19T08:14:02.366Z,9.10
2022-10-19T08:15:02.379Z,9.10
2022-10-19T08:16:02.142Z,9.10
2022-10-19T08:17:02.802Z,9.20
2022-10-19T08:18:02.777Z,9.20
2022-10-19T08:19:02.571Z,9.20
2022-10-19T08:20:02.302Z,9.20
2022-10-19T08:21:02.269Z,9.20
2022-10-19T08:22:02.075Z,9.90
2022-10-19T08:23:02.046Z,9.90
2022-10-19T08:24:01.967Z,9.90
2022-10-19T08:25:02.464Z,9.90
2022-10-19T08:26:02.100Z,9.90
2022-10-19T08:27:02.611Z,10.00
2022-10-19T08:28:02.391Z,10.00
2022-10-19T08:29:02.377Z,10.00
2022-10-19T08:30:02.678Z,10.00
2022-10-19T08:31:02.681Z,10.00
2022-10-19T08:32:02.982Z,9.90
2022-10-19T08:33:02.920Z,9.90
2022-10-19T08:34:02.852Z,9.90
2022-10-19T08:35:06.003Z,9.90
2022-10-19T08:36:02.733Z,9.90
2022-10-19T08:37:10.326Z,9.20
2022-10-19T08:38:03.097Z,9.20
2022-10-19T08:39:02.917Z,9.20
2022-10-19T08:40:02.767Z,9.20
2022-10-19T08:41:02.640Z,9.20
2022-10-19T08:42:02.760Z,9.00
2022-10-19T08:43:02.831Z,9.00
2022-10-19T08:44:06.234Z,9.00
2022-10-19T08:45:03.535Z,9.00
2022-10-19T08:46:03.294Z,9.00
2022-10-19T08:47:02.752Z,9.00
2022-10-19T08:48:02.802Z,9.00
2022-10-19T08:49:02.771Z,9.00
2022-10-19T08:50:02.633Z,9.00
2022-10-19T08:51:02.522Z,9.00
2022-10-19T08:52:02.717Z,9.40
2022-10-19T08:53:03.088Z,9.40
2022-10-19T08:54:02.838Z,9.40
2022-10-19T08:55:03.530Z,9.40
2022-10-19T08:56:04.477Z,9.40
2022-10-19T08:57:02.809Z,10.30
2022-10-19T08:58:02.367Z,10.30
2022-10-19T08:59:02.316Z,10.30
2022-10-19T09:00:02.298Z,10.30
2022-10-19T09:01:02.295Z,10.30
2022-10-19T09:02:02.520Z,9.50
2022-10-19T09:03:02.443Z,9.50
2022-10-19T09:04:02.764Z,9.50
2022-10-19T09:05:02.801Z,9.50
2022-10-19T09:06:02.469Z,9.50
2022-10-19T09:07:03.519Z,9.00
2022-10-19T09:08:03.441Z,9.00
2022-10-19T09:09:03.550Z,9.00
2022-10-19T09:10:03.532Z,9.00
2022-10-19T09:11:03.258Z,9.00
2022-10-19T09:12:02.262Z,9.50
2022-10-19T09:13:02.501Z,9.50
2022-10-19T09:14:06.315Z,9.50
2022-10-19T09:15:02.411Z,9.50
2022-10-19T09:16:02.342Z,9.50
2022-10-19T09:17:03.454Z,9.40
2022-10-19T09:18:02.819Z,9.40
2022-10-19T09:19:02.899Z,9.40
2022-10-19T09:20:02.945Z,9.40
2022-10-19T09:21:02.860Z,9.40
2022-10-19T09:22:03.021Z,10.20
2022-10-19T09:23:02.427Z,10.20
2022-10-19T09:24:02.947Z,10.20
2022-10-19T09:25:02.923Z,10.20
2022-10-19T09:26:02.869Z,10.20
2022-10-19T09:27:03.028Z,9.50
2022-10-19T09:28:03.047Z,9.50
2022-10-19T09:29:02.968Z,9.50
2022-10-19T09:30:03.052Z,9.50
2022-10-19T09:31:02.979Z,9.50
2022-10-19T09:32:02.702Z,9.90
2022-10-19T09:33:02.895Z,9.90
2022-10-19T09:34:02.534Z,9.90
2022-10-19T09:35:02.537Z,9.90
2022-10-19T09:36:02.921Z,9.90
2022-10-19T09:37:02.972Z,9.40
2022-10-19T09:38:03.032Z,9.40
2022-10-19T09:39:03.018Z,9.40
2022-10-19T09:40:02.983Z,9.40
2022-10-19T09:41:02.963Z,9.40
2022-10-19T09:42:02.955Z,8.80
2022-10-19T09:43:03.035Z,8.80
2022-10-19T09:44:03.090Z,8.80
2022-10-19T09:45:03.076Z,8.80
2022-10-19T09:46:05.050Z,8.80
2022-10-19T09:47:03.025Z,9.30
2022-10-19T09:48:08.686Z,9.30
2022-10-19T09:49:03.358Z,9.30
2022-10-19T09:50:03.145Z,9.30
2022-10-19T09:51:02.999Z,9.30
2022-10-19T09:52:02.834Z,9.40
2022-10-19T09:53:02.975Z,9.40
2022-10-19T09:54:02.388Z,9.40
2022-10-19T09:55:02.738Z,9.40
2022-10-19T09:56:02.741Z,9.40
2022-10-19T09:57:03.379Z,9.10
2022-10-19T09:58:03.509Z,9.10
2022-10-19T09:59:03.494Z,9.10
2022-10-19T10:00:03.472Z,9.10
2022-10-19T10:01:03.674Z,9.10
2022-10-19T10:03:03.584Z,8.30
2022-10-19T10:04:03.704Z,8.30
2022-10-19T10:05:03.400Z,8.30
2022-10-19T10:06:03.545Z,8.30
2022-10-19T10:07:02.750Z,8.20
2022-10-19T10:08:02.553Z,8.20
2022-10-19T10:09:02.708Z,8.20
2022-10-19T10:10:02.926Z,8.20
2022-10-19T10:11:02.522Z,8.20
2022-10-19T10:12:02.957Z,8.10
2022-10-19T10:13:02.801Z,8.10
2022-10-19T10:14:04.978Z,8.10
2022-10-19T10:15:03.269Z,8.10
2022-10-19T10:16:02.684Z,8.10
2022-10-19T10:17:03.522Z,7.30
2022-10-19T10:18:03.313Z,7.30
2022-10-19T10:19:03.300Z,7.30
2022-10-19T10:20:03.531Z,7.30
2022-10-19T10:21:05.908Z,7.30
2022-10-19T10:22:03.147Z,7.50
2022-10-19T10:23:03.165Z,7.50
2022-10-19T10:24:02.923Z,7.50
2022-10-19T10:25:02.907Z,7.50
2022-10-19T10:26:03.094Z,7.50
2022-10-19T10:27:03.491Z,6.60
2022-10-19T10:28:03.548Z,6.60
2022-10-19T10:29:03.325Z,6.60
2022-10-19T10:30:03.510Z,6.60
2022-10-19T10:31:03.513Z,6.60
2022-10-19T10:32:02.779Z,6.80
2022-10-19T10:33:13.426Z,6.80
2022-10-19T10:34:11.078Z,6.80
2022-10-19T10:35:02.323Z,6.80
2022-10-19T10:36:02.648Z,6.80
2022-10-19T10:37:02.934Z,6.10
2022-10-19T10:38:02.878Z,6.10
2022-10-19T10:40:03.957Z,6.10
2022-10-19T10:41:03.036Z,6.10
2022-10-19T10:42:02.965Z,6.10
2022-10-19T10:43:02.821Z,6.10
2022-10-19T10:44:04.779Z,6.10
2022-10-19T10:45:03.115Z,6.10
2022-10-19T10:46:02.801Z,6.10
2022-10-19T10:47:03.190Z,6.50
2022-10-19T10:48:02.757Z,6.50
2022-10-19T10:49:03.183Z,6.50
2022-10-19T10:50:02.923Z,6.50
2022-10-19T10:51:02.978Z,6.50
2022-10-19T10:52:03.423Z,6.60
2022-10-19T10:53:03.503Z,6.60
2022-10-19T10:54:03.040Z,6.60
2022-10-19T10:55:03.013Z,6.60
2022-10-19T10:56:03.502Z,6.60
2022-10-19T10:57:04.417Z,5.80
2022-10-19T10:58:03.759Z,5.80
2022-10-19T10:59:03.486Z,5.80
2022-10-19T11:00:03.141Z,5.80
2022-10-19T11:01:06.705Z,5.80
2022-10-19T11:02:03.009Z,6.20
2022-10-19T11:03:02.706Z,6.20
2022-10-19T11:04:02.838Z,6.20
2022-10-19T11:05:02.583Z,6.20
2022-10-19T11:06:03.022Z,6.20
2022-10-19T11:07:02.584Z,5.70
2022-10-19T11:08:02.010Z,5.70
2022-10-19T11:09:02.197Z,5.70
2022-10-19T11:10:02.199Z,5.70
2022-10-19T11:11:02.443Z,5.70
2022-10-19T11:12:02.626Z,5.90
2022-10-19T11:13:02.642Z,5.90
2022-10-19T11:14:02.780Z,5.90
2022-10-19T11:15:02.865Z,5.90
2022-10-19T11:16:02.241Z,5.90
2022-10-19T11:17:03.191Z,5.30
2022-10-19T11:18:02.721Z,5.30
2022-10-19T11:19:02.774Z,5.30
2022-10-19T11:20:02.844Z,5.30
2022-10-19T11:21:02.623Z,5.30
2022-10-19T11:22:02.818Z,5.20
2022-10-19T11:23:02.709Z,5.20
2022-10-19T11:24:02.776Z,5.20
2022-10-19T11:25:02.637Z,5.20
2022-10-19T11:26:02.249Z,5.20
2022-10-19T11:27:03.505Z,4.70
2022-10-19T11:28:03.514Z,4.70
2022-10-19T11:29:02.936Z,4.70
2022-10-19T11:30:03.211Z,4.70
2022-10-19T11:31:02.885Z,4.70
2022-10-19T11:32:02.436Z,4.80
2022-10-19T11:33:02.550Z,4.80
2022-10-19T11:34:02.758Z,4.80
2022-10-19T11:35:02.451Z,4.80
2022-10-19T11:36:02.465Z,4.80
2022-10-19T11:37:02.635Z,3.90
2022-10-19T11:38:21.148Z,3.90
2022-10-19T11:39:03.146Z,3.90
2022-10-19T11:40:03.208Z,3.90
2022-10-19T11:41:19.146Z,3.90
2022-10-19T11:42:02.867Z,4.50
2022-10-19T11:43:03.520Z,4.50
2022-10-19T11:44:02.929Z,4.50
2022-10-19T11:45:03.046Z,4.50
2022-10-19T11:46:03.502Z,4.50
2022-10-19T11:47:03.520Z,3.90
2022-10-19T11:48:02.682Z,3.90
2022-10-19T11:49:02.741Z,3.90
2022-10-19T11:50:02.625Z,3.90
2022-10-19T11:51:20.540Z,3.90
2022-10-19T11:52:02.848Z,4.30
2022-10-19T11:53:02.080Z,4.30
2022-10-19T11:54:02.102Z,4.30
2022-10-19T11:55:02.527Z,4.30
2022-10-19T11:56:02.297Z,4.30
2022-10-19T11:57:04.729Z,4.10
2022-10-19T11:58:03.155Z,4.10
2022-10-19T11:59:02.709Z,4.10
2022-10-19T12:00:14.064Z,4.10
2022-10-19T12:01:03.075Z,4.10
2022-10-19T12:02:03.334Z,4.00
2022-10-19T12:03:03.818Z,4.00
2022-10-19T12:04:02.074Z,4.00
2022-10-19T12:05:02.236Z,4.00
2022-10-19T12:06:02.007Z,4.00
2022-10-19T12:07:02.379Z,3.60
2022-10-19T12:08:02.092Z,3.60
2022-10-19T12:09:02.267Z,3.60
2022-10-19T12:10:02.531Z,3.60
2022-10-19T12:11:02.304Z,3.60
2022-10-19T12:12:02.457Z,3.70
2022-10-19T12:13:02.430Z,3.70
2022-10-19T12:14:02.637Z,3.70
2022-10-19T12:15:02.390Z,3.70
2022-10-19T12:16:02.559Z,3.70
2022-10-19T12:17:02.428Z,3.80
2022-10-19T12:18:02.404Z,3.80
2022-10-19T12:19:02.514Z,3.80
2022-10-19T12:20:02.440Z,3.80
2022-10-19T12:21:02.668Z,3.80
2022-10-19T12:22:02.463Z,3.00
2022-10-19T12:23:02.112Z,3.00
2022-10-19T12:24:02.343Z,3.00
2022-10-19T12:25:01.940Z,3.00
2022-10-19T12:26:01.989Z,3.00
2022-10-19T12:27:01.883Z,3.60
2022-10-19T12:28:02.453Z,3.60
2022-10-19T12:29:02.258Z,3.60
2022-10-19T12:30:02.236Z,3.60
2022-10-19T12:31:02.380Z,3.60
2022-10-19T12:32:02.641Z,3.20
2022-10-19T12:33:02.788Z,3.20
2022-10-19T12:34:02.400Z,3.20
2022-10-19T12:35:02.399Z,3.20
2022-10-19T12:36:02.561Z,3.20
2022-10-19T12:37:02.333Z,3.30
2022-10-19T12:38:02.067Z,3.30
2022-10-19T12:39:01.679Z,3.30
2022-10-19T12:40:01.723Z,3.30
2022-10-19T12:41:02.068Z,3.30
2022-10-19T12:42:02.158Z,3.40
2022-10-19T12:43:02.333Z,3.40
2022-10-19T12:44:02.381Z,3.40
2022-10-19T12:45:02.091Z,3.40
2022-10-19T12:46:02.326Z,3.40
2022-10-19T12:47:02.136Z,3.30
2022-10-19T12:48:02.955Z,3.30
2022-10-19T12:49:02.845Z,3.30
2022-10-19T12:50:03.042Z,3.30
2022-10-19T12:51:02.473Z,3.30
2022-10-19T12:52:02.895Z,4.00
2022-10-19T12:53:02.652Z,4.00
2022-10-19T12:54:02.997Z,4.00
2022-10-19T12:55:02.996Z,4.00
2022-10-19T12:56:02.455Z,4.00
2022-10-19T12:57:02.841Z,4.40
2022-10-19T12:58:02.338Z,4.40
2022-10-19T12:59:02.216Z,4.40
2022-10-19T13:00:02.475Z,4.40
2022-10-19T13:01:02.557Z,4.40
2022-10-19T13:02:02.486Z,4.20
2022-10-19T13:03:02.812Z,4.20
2022-10-19T13:04:03.054Z,4.20
2022-10-19T13:05:02.992Z,4.20
2022-10-19T13:06:02.756Z,4.20
2022-10-19T13:07:02.733Z,4.20
2022-10-19T13:08:03.534Z,4.20
2022-10-19T13:09:03.000Z,4.20
2022-10-19T13:10:03.487Z,4.20
2022-10-19T13:11:03.488Z,4.20
2022-10-19T13:12:03.059Z,3.80
2022-10-19T13:13:03.481Z,3.80
2022-10-19T13:14:03.662Z,3.80
2022-10-19T13:15:03.494Z,3.80
2022-10-19T13:16:03.453Z,3.80
2022-10-19T13:17:03.461Z,4.00